sensor_id;sensor_type;location;lat;lon;timestamp;P1;durP1;ratioP1;P2;durP2;ratioP2
53062;SDS011;40529;52.172;10.548;2022-10-30T00:00:53;32.53;;;17.23;;
53062;SDS011;40529;52.172;10.548;2022-10-30T00:03:19;30.73;;;16.52;;
53062;SDS011;40529;52.172;10.548;2022-10-30T00:05:47;29.92;;;17.25;;
53062;SDS011;40529;52.172;10.548;2022-10-30T00:08:13;27.02;;;16.50;;
53062;SDS011;40529;52.172;10.548;2022-10-30T00:10:40;32.35;;;16.52;;
53062;SDS011;40529;52.172;10.548;2022-10-30T00:13:06;31.05;;;17.00;;
53062;SDS011;40529;52.172;10.548;2022-10-30T00:15:32;28.45;;;16.73;;
53062;SDS011;40529;52.172;10.548;2022-10-30T00:17:58;30.48;;;17.98;;
53062;SDS011;40529;52.172;10.548;2022-10-30T00:20:24;31.00;;;17.73;;
53062;SDS011;40529;52.172;10.548;2022-10-30T00:22:50;32.60;;;17.83;;
53062;SDS011;40529;52.172;10.548;2022-10-30T00:25:16;32.97;;;18.77;;
53062;SDS011;40529;52.172;10.548;2022-10-30T00:27:42;30.23;;;17.52;;
53062;SDS011;40529;52.172;10.548;2022-10-30T00:30:09;31.30;;;18.63;;
53062;SDS011;40529;52.172;10.548;2022-10-30T00:32:35;28.90;;;17.30;;
53062;SDS011;40529;52.172;10.548;2022-10-30T00:35:01;29.45;;;15.55;;
53062;SDS011;40529;52.172;10.548;2022-10-30T00:37:27;25.52;;;15.50;;
53062;SDS011;40529;52.172;10.548;2022-10-30T00:39:53;26.30;;;14.85;;
53062;SDS011;40529;52.172;10.548;2022-10-30T00:42:19;29.70;;;15.63;;
53062;SDS011;40529;52.172;10.548;2022-10-30T00:44:49;26.42;;;15.95;;
53062;SDS011;40529;52.172;10.548;2022-10-30T00:47:24;23.90;;;14.65;;
53062;SDS011;40529;52.172;10.548;2022-10-30T00:52:24;28.85;;;15.40;;
53062;SDS011;40529;52.172;10.548;2022-10-30T00:54:51;25.63;;;15.05;;
53062;SDS011;40529;52.172;10.548;2022-10-30T00:57:18;27.52;;;15.55;;
53062;SDS011;40529;52.172;10.548;2022-10-30T00:59:44;28.05;;;15.27;;
53062;SDS011;40529;52.172;10.548;2022-10-30T01:02:10;26.25;;;14.27;;
53062;SDS011;40529;52.172;10.548;2022-10-30T01:04:36;31.83;;;15.63;;
53062;SDS011;40529;52.172;10.548;2022-10-30T01:07:08;26.25;;;14.88;;
53062;SDS011;40529;52.172;10.548;2022-10-30T01:09:36;31.40;;;15.80;;
53062;SDS011;40529;52.172;10.548;2022-10-30T01:12:03;30.20;;;14.00;;
53062;SDS011;40529;52.172;10.548;2022-10-30T01:14:29;25.48;;;14.80;;
53062;SDS011;40529;52.172;10.548;2022-10-30T01:19:31;24.52;;;15.05;;
53062;SDS011;40529;52.172;10.548;2022-10-30T01:22:20;26.25;;;14.77;;
53062;SDS011;40529;52.172;10.548;2022-10-30T01:30:10;32.75;;;14.90;;
53062;SDS011;40529;52.172;10.548;2022-10-30T01:35:45;22.67;;;13.05;;
53062;SDS011;40529;52.172;10.548;2022-10-30T01:38:16;23.60;;;13.38;;
53062;SDS011;40529;52.172;10.548;2022-10-30T01:40:45;24.90;;;14.40;;
53062;SDS011;40529;52.172;10.548;2022-10-30T01:43:11;25.45;;;13.88;;
53062;SDS011;40529;52.172;10.548;2022-10-30T01:56:20;27.92;;;14.68;;
53062;SDS011;40529;52.172;10.548;2022-10-30T02:01:32;25.88;;;14.65;;
53062;SDS011;40529;52.172;10.548;2022-10-30T02:04:01;25.10;;;15.35;;
53062;SDS011;40529;52.172;10.548;2022-10-30T02:06:27;32.13;;;15.25;;
53062;SDS011;40529;52.172;10.548;2022-10-30T02:08:54;24.05;;;14.02;;
53062;SDS011;40529;52.172;10.548;2022-10-30T02:11:21;25.00;;;14.38;;
53062;SDS011;40529;52.172;10.548;2022-10-30T02:13:47;25.15;;;14.80;;
53062;SDS011;40529;52.172;10.548;2022-10-30T02:16:13;29.58;;;15.57;;
53062;SDS011;40529;52.172;10.548;2022-10-30T02:18:39;30.13;;;15.00;;
53062;SDS011;40529;52.172;10.548;2022-10-30T02:21:05;29.88;;;16.63;;
53062;SDS011;40529;52.172;10.548;2022-10-30T02:23:33;25.10;;;14.73;;
53062;SDS011;40529;52.172;10.548;2022-10-30T02:25:59;26.98;;;13.55;;
53062;SDS011;40529;52.172;10.548;2022-10-30T02:28:25;20.23;;;14.13;;
53062;SDS011;40529;52.172;10.548;2022-10-30T02:30:51;26.73;;;15.25;;
53062;SDS011;40529;52.172;10.548;2022-10-30T02:33:17;26.38;;;15.07;;
53062;SDS011;40529;52.172;10.548;2022-10-30T02:35:43;23.83;;;13.60;;
53062;SDS011;40529;52.172;10.548;2022-10-30T02:38:09;23.40;;;13.77;;
53062;SDS011;40529;52.172;10.548;2022-10-30T02:40:35;24.00;;;12.77;;
53062;SDS011;40529;52.172;10.548;2022-10-30T02:43:01;27.38;;;13.18;;
53062;SDS011;40529;52.172;10.548;2022-10-30T02:45:27;21.48;;;12.57;;
53062;SDS011;40529;52.172;10.548;2022-10-30T02:47:53;24.42;;;12.73;;
53062;SDS011;40529;52.172;10.548;2022-10-30T02:50:19;21.10;;;12.50;;
53062;SDS011;40529;52.172;10.548;2022-10-30T02:52:45;21.73;;;11.10;;
53062;SDS011;40529;52.172;10.548;2022-10-30T02:55:11;21.92;;;11.15;;
53062;SDS011;40529;52.172;10.548;2022-10-30T02:57:37;17.98;;;10.95;;
53062;SDS011;40529;52.172;10.548;2022-10-30T03:00:04;22.98;;;10.93;;
53062;SDS011;40529;52.172;10.548;2022-10-30T03:02:30;19.50;;;9.80;;
53062;SDS011;40529;52.172;10.548;2022-10-30T03:04:56;18.45;;;10.05;;
53062;SDS011;40529;52.172;10.548;2022-10-30T03:07:22;17.48;;;9.32;;
53062;SDS011;40529;52.172;10.548;2022-10-30T03:09:48;21.13;;;9.43;;
53062;SDS011;40529;52.172;10.548;2022-10-30T03:12:16;16.35;;;9.02;;
53062;SDS011;40529;52.172;10.548;2022-10-30T03:14:42;16.83;;;8.95;;
53062;SDS011;40529;52.172;10.548;2022-10-30T03:17:08;14.60;;;8.07;;
53062;SDS011;40529;52.172;10.548;2022-10-30T03:19:34;15.30;;;8.32;;
53062;SDS011;40529;52.172;10.548;2022-10-30T03:22:00;14.38;;;8.68;;
53062;SDS011;40529;52.172;10.548;2022-10-30T03:24:26;16.25;;;9.00;;
53062;SDS011;40529;52.172;10.548;2022-10-30T03:26:52;15.07;;;7.72;;
53062;SDS011;40529;52.172;10.548;2022-10-30T03:29:18;14.82;;;7.03;;
53062;SDS011;40529;52.172;10.548;2022-10-30T03:31:44;14.50;;;7.88;;
53062;SDS011;40529;52.172;10.548;2022-10-30T03:34:11;16.00;;;6.88;;
53062;SDS011;40529;52.172;10.548;2022-10-30T03:36:37;17.10;;;7.97;;
53062;SDS011;40529;52.172;10.548;2022-10-30T03:39:03;15.05;;;7.45;;
53062;SDS011;40529;52.172;10.548;2022-10-30T03:41:29;22.02;;;7.18;;
53062;SDS011;40529;52.172;10.548;2022-10-30T03:43:55;11.55;;;6.63;;
53062;SDS011;40529;52.172;10.548;2022-10-30T03:46:21;15.25;;;6.40;;
53062;SDS011;40529;52.172;10.548;2022-10-30T03:48:47;10.45;;;6.22;;
53062;SDS011;40529;52.172;10.548;2022-10-30T03:51:14;13.77;;;6.82;;
53062;SDS011;40529;52.172;10.548;2022-10-30T03:53:40;12.73;;;6.65;;
53062;SDS011;40529;52.172;10.548;2022-10-30T03:56:06;13.35;;;6.15;;
53062;SDS011;40529;52.172;10.548;2022-10-30T03:58:32;11.10;;;5.75;;
53062;SDS011;40529;52.172;10.548;2022-10-30T04:00:59;10.88;;;5.90;;
53062;SDS011;40529;52.172;10.548;2022-10-30T04:03:26;10.40;;;6.55;;
53062;SDS011;40529;52.172;10.548;2022-10-30T04:05:52;12.18;;;6.43;;
53062;SDS011;40529;52.172;10.548;2022-10-30T04:08:18;10.98;;;6.72;;
53062;SDS011;40529;52.172;10.548;2022-10-30T04:10:44;12.63;;;6.03;;
53062;SDS011;40529;52.172;10.548;2022-10-30T04:13:11;11.90;;;6.07;;
53062;SDS011;40529;52.172;10.548;2022-10-30T04:15:38;14.73;;;6.13;;
53062;SDS011;40529;52.172;10.548;2022-10-30T04:18:04;16.17;;;6.15;;
53062;SDS011;40529;52.172;10.548;2022-10-30T04:20:30;12.68;;;6.65;;
53062;SDS011;40529;52.172;10.548;2022-10-30T04:22:57;16.08;;;5.70;;
53062;SDS011;40529;52.172;10.548;2022-10-30T04:25:24;10.50;;;5.50;;
53062;SDS011;40529;52.172;10.548;2022-10-30T04:27:50;9.95;;;5.65;;
53062;SDS011;40529;52.172;10.548;2022-10-30T04:30:17;13.95;;;6.35;;
53062;SDS011;40529;52.172;10.548;2022-10-30T04:32:48;10.88;;;5.40;;
53062;SDS011;40529;52.172;10.548;2022-10-30T04:35:15;12.93;;;5.30;;
53062;SDS011;40529;52.172;10.548;2022-10-30T04:37:41;12.18;;;5.90;;
53062;SDS011;40529;52.172;10.548;2022-10-30T04:40:08;11.32;;;5.35;;
53062;SDS011;40529;52.172;10.548;2022-10-30T04:42:34;12.52;;;6.28;;
53062;SDS011;40529;52.172;10.548;2022-10-30T04:45:00;11.82;;;5.53;;
53062;SDS011;40529;52.172;10.548;2022-10-30T04:47:30;19.20;;;5.72;;
53062;SDS011;40529;52.172;10.548;2022-10-30T04:49:56;14.47;;;5.97;;
53062;SDS011;40529;52.172;10.548;2022-10-30T04:52:22;11.68;;;5.80;;
53062;SDS011;40529;52.172;10.548;2022-10-30T04:54:48;14.35;;;6.50;;
53062;SDS011;40529;52.172;10.548;2022-10-30T04:57:14;9.70;;;5.22;;
53062;SDS011;40529;52.172;10.548;2022-10-30T04:59:40;9.18;;;5.35;;
53062;SDS011;40529;52.172;10.548;2022-10-30T05:02:06;11.45;;;5.28;;
53062;SDS011;40529;52.172;10.548;2022-10-30T05:04:33;10.15;;;5.35;;
53062;SDS011;40529;52.172;10.548;2022-10-30T05:06:59;9.93;;;5.90;;
53062;SDS011;40529;52.172;10.548;2022-10-30T05:09:26;9.60;;;5.22;;
53062;SDS011;40529;52.172;10.548;2022-10-30T05:11:52;12.50;;;5.35;;
53062;SDS011;40529;52.172;10.548;2022-10-30T05:14:18;14.93;;;6.10;;
53062;SDS011;40529;52.172;10.548;2022-10-30T05:16:44;8.88;;;5.90;;
53062;SDS011;40529;52.172;10.548;2022-10-30T05:19:10;10.85;;;4.82;;
53062;SDS011;40529;52.172;10.548;2022-10-30T05:21:36;13.55;;;5.32;;
53062;SDS011;40529;52.172;10.548;2022-10-30T05:24:02;9.25;;;5.30;;
53062;SDS011;40529;52.172;10.548;2022-10-30T05:26:28;8.18;;;5.50;;
53062;SDS011;40529;52.172;10.548;2022-10-30T05:28:54;10.60;;;5.65;;
53062;SDS011;40529;52.172;10.548;2022-10-30T05:31:20;11.65;;;5.45;;
53062;SDS011;40529;52.172;10.548;2022-10-30T05:33:46;11.73;;;6.28;;
53062;SDS011;40529;52.172;10.548;2022-10-30T05:36:12;11.35;;;5.50;;
53062;SDS011;40529;52.172;10.548;2022-10-30T05:38:38;11.15;;;5.13;;
53062;SDS011;40529;52.172;10.548;2022-10-30T05:41:04;11.68;;;5.88;;
53062;SDS011;40529;52.172;10.548;2022-10-30T05:43:30;12.65;;;6.18;;
53062;SDS011;40529;52.172;10.548;2022-10-30T05:45:56;12.20;;;5.97;;
53062;SDS011;40529;52.172;10.548;2022-10-30T05:48:22;12.07;;;6.18;;
53062;SDS011;40529;52.172;10.548;2022-10-30T05:50:48;12.25;;;5.75;;
53062;SDS011;40529;52.172;10.548;2022-10-30T05:53:14;11.68;;;5.38;;
53062;SDS011;40529;52.172;10.548;2022-10-30T05:55:41;13.73;;;6.00;;
53062;SDS011;40529;52.172;10.548;2022-10-30T05:58:08;10.27;;;5.20;;
53062;SDS011;40529;52.172;10.548;2022-10-30T06:00:34;9.98;;;5.55;;
53062;SDS011;40529;52.172;10.548;2022-10-30T06:03:05;10.02;;;5.13;;
53062;SDS011;40529;52.172;10.548;2022-10-30T06:05:32;11.95;;;5.40;;
53062;SDS011;40529;52.172;10.548;2022-10-30T06:07:59;11.13;;;5.65;;
53062;SDS011;40529;52.172;10.548;2022-10-30T06:10:25;12.35;;;5.57;;
53062;SDS011;40529;52.172;10.548;2022-10-30T06:12:55;12.18;;;6.10;;
53062;SDS011;40529;52.172;10.548;2022-10-30T06:17:47;12.30;;;6.00;;
53062;SDS011;40529;52.172;10.548;2022-10-30T06:20:14;18.23;;;7.10;;
53062;SDS011;40529;52.172;10.548;2022-10-30T06:22:40;14.90;;;6.45;;
53062;SDS011;40529;52.172;10.548;2022-10-30T06:25:06;11.48;;;6.05;;
53062;SDS011;40529;52.172;10.548;2022-10-30T06:27:35;16.98;;;6.85;;
53062;SDS011;40529;52.172;10.548;2022-10-30T06:30:01;13.27;;;6.40;;
53062;SDS011;40529;52.172;10.548;2022-10-30T06:32:28;14.68;;;6.88;;
53062;SDS011;40529;52.172;10.548;2022-10-30T06:34:54;11.07;;;6.20;;
53062;SDS011;40529;52.172;10.548;2022-10-30T06:37:20;12.70;;;6.55;;
53062;SDS011;40529;52.172;10.548;2022-10-30T06:39:46;11.25;;;6.25;;
53062;SDS011;40529;52.172;10.548;2022-10-30T06:42:12;13.10;;;6.72;;
53062;SDS011;40529;52.172;10.548;2022-10-30T06:44:38;14.30;;;6.57;;
53062;SDS011;40529;52.172;10.548;2022-10-30T06:47:04;11.85;;;6.75;;
53062;SDS011;40529;52.172;10.548;2022-10-30T06:49:30;17.48;;;6.82;;
53062;SDS011;40529;52.172;10.548;2022-10-30T06:51:56;16.48;;;6.93;;
53062;SDS011;40529;52.172;10.548;2022-10-30T06:54:22;15.70;;;7.50;;
53062;SDS011;40529;52.172;10.548;2022-10-30T06:56:49;13.68;;;6.78;;
53062;SDS011;40529;52.172;10.548;2022-10-30T06:59:15;14.45;;;6.93;;
53062;SDS011;40529;52.172;10.548;2022-10-30T07:01:41;13.63;;;7.45;;
53062;SDS011;40529;52.172;10.548;2022-10-30T07:04:07;13.32;;;7.28;;
53062;SDS011;40529;52.172;10.548;2022-10-30T07:06:33;15.38;;;6.75;;
53062;SDS011;40529;52.172;10.548;2022-10-30T07:08:59;14.00;;;7.32;;
53062;SDS011;40529;52.172;10.548;2022-10-30T07:11:25;14.55;;;6.93;;
53062;SDS011;40529;52.172;10.548;2022-10-30T07:13:52;15.10;;;7.95;;
53062;SDS011;40529;52.172;10.548;2022-10-30T07:16:18;14.77;;;7.65;;
53062;SDS011;40529;52.172;10.548;2022-10-30T07:18:44;15.27;;;8.57;;
53062;SDS011;40529;52.172;10.548;2022-10-30T07:21:10;17.50;;;7.78;;
53062;SDS011;40529;52.172;10.548;2022-10-30T07:23:36;16.25;;;8.40;;
53062;SDS011;40529;52.172;10.548;2022-10-30T07:26:02;16.65;;;8.27;;
53062;SDS011;40529;52.172;10.548;2022-10-30T07:28:28;18.75;;;8.95;;
53062;SDS011;40529;52.172;10.548;2022-10-30T07:30:56;18.92;;;8.73;;
53062;SDS011;40529;52.172;10.548;2022-10-30T07:33:22;15.07;;;8.93;;
53062;SDS011;40529;52.172;10.548;2022-10-30T07:35:49;15.43;;;7.32;;
53062;SDS011;40529;52.172;10.548;2022-10-30T07:38:15;15.00;;;7.78;;
53062;SDS011;40529;52.172;10.548;2022-10-30T07:40:41;15.15;;;7.30;;
53062;SDS011;40529;52.172;10.548;2022-10-30T07:43:08;14.65;;;7.60;;
53062;SDS011;40529;52.172;10.548;2022-10-30T07:45:37;13.63;;;6.05;;
53062;SDS011;40529;52.172;10.548;2022-10-30T07:48:03;16.48;;;7.07;;
53062;SDS011;40529;52.172;10.548;2022-10-30T07:50:29;16.27;;;7.65;;
53062;SDS011;40529;52.172;10.548;2022-10-30T07:52:56;15.10;;;7.65;;
53062;SDS011;40529;52.172;10.548;2022-10-30T07:55:22;14.80;;;7.57;;
53062;SDS011;40529;52.172;10.548;2022-10-30T07:57:48;15.95;;;7.50;;
53062;SDS011;40529;52.172;10.548;2022-10-30T08:00:15;14.35;;;7.28;;
53062;SDS011;40529;52.172;10.548;2022-10-30T08:02:41;14.82;;;7.65;;
53062;SDS011;40529;52.172;10.548;2022-10-30T08:05:07;15.50;;;7.55;;
53062;SDS011;40529;52.172;10.548;2022-10-30T08:07:35;15.35;;;7.90;;
53062;SDS011;40529;52.172;10.548;2022-10-30T08:10:01;15.18;;;7.88;;
53062;SDS011;40529;52.172;10.548;2022-10-30T08:12:27;12.63;;;7.00;;
53062;SDS011;40529;52.172;10.548;2022-10-30T08:14:53;18.20;;;8.02;;
53062;SDS011;40529;52.172;10.548;2022-10-30T08:17:20;14.98;;;7.68;;
53062;SDS011;40529;52.172;10.548;2022-10-30T08:19:46;19.55;;;8.45;;
53062;SDS011;40529;52.172;10.548;2022-10-30T08:22:12;17.33;;;8.27;;
53062;SDS011;40529;52.172;10.548;2022-10-30T08:24:38;14.82;;;7.07;;
53062;SDS011;40529;52.172;10.548;2022-10-30T08:27:04;14.45;;;7.32;;
53062;SDS011;40529;52.172;10.548;2022-10-30T08:29:30;17.05;;;7.18;;
53062;SDS011;40529;52.172;10.548;2022-10-30T08:31:58;15.07;;;6.97;;
53062;SDS011;40529;52.172;10.548;2022-10-30T08:34:24;18.90;;;7.25;;
53062;SDS011;40529;52.172;10.548;2022-10-30T08:36:51;19.02;;;7.10;;
53062;SDS011;40529;52.172;10.548;2022-10-30T08:39:17;17.45;;;7.00;;
53062;SDS011;40529;52.172;10.548;2022-10-30T08:41:44;13.18;;;6.13;;
53062;SDS011;40529;52.172;10.548;2022-10-30T08:44:10;16.10;;;5.90;;
53062;SDS011;40529;52.172;10.548;2022-10-30T08:46:36;15.43;;;5.93;;
53062;SDS011;40529;52.172;10.548;2022-10-30T08:49:02;13.57;;;5.95;;
53062;SDS011;40529;52.172;10.548;2022-10-30T08:51:32;9.25;;;5.35;;
53062;SDS011;40529;52.172;10.548;2022-10-30T08:53:58;12.60;;;5.70;;
53062;SDS011;40529;52.172;10.548;2022-10-30T08:56:25;14.60;;;5.65;;
53062;SDS011;40529;52.172;10.548;2022-10-30T08:58:51;20.60;;;5.45;;
53062;SDS011;40529;52.172;10.548;2022-10-30T09:01:17;15.75;;;5.60;;
53062;SDS011;40529;52.172;10.548;2022-10-30T09:03:44;12.63;;;5.20;;
53062;SDS011;40529;52.172;10.548;2022-10-30T09:06:10;15.27;;;5.32;;
53062;SDS011;40529;52.172;10.548;2022-10-30T09:08:36;13.48;;;5.20;;
53062;SDS011;40529;52.172;10.548;2022-10-30T09:11:03;12.18;;;5.03;;
53062;SDS011;40529;52.172;10.548;2022-10-30T09:13:29;14.05;;;5.15;;
53062;SDS011;40529;52.172;10.548;2022-10-30T09:15:59;15.38;;;4.82;;
53062;SDS011;40529;52.172;10.548;2022-10-30T09:18:25;12.40;;;4.65;;
53062;SDS011;40529;52.172;10.548;2022-10-30T09:20:51;10.88;;;4.50;;
53062;SDS011;40529;52.172;10.548;2022-10-30T09:23:17;8.73;;;4.10;;
53062;SDS011;40529;52.172;10.548;2022-10-30T09:25:43;13.82;;;4.70;;
53062;SDS011;40529;52.172;10.548;2022-10-30T09:28:09;9.38;;;5.22;;
53062;SDS011;40529;52.172;10.548;2022-10-30T09:30:35;10.68;;;4.20;;
53062;SDS011;40529;52.172;10.548;2022-10-30T09:33:01;11.95;;;4.80;;
53062;SDS011;40529;52.172;10.548;2022-10-30T09:35:28;13.57;;;4.53;;
53062;SDS011;40529;52.172;10.548;2022-10-30T09:37:54;14.70;;;4.30;;
53062;SDS011;40529;52.172;10.548;2022-10-30T09:40:21;11.20;;;4.00;;
53062;SDS011;40529;52.172;10.548;2022-10-30T09:42:48;15.02;;;4.75;;
53062;SDS011;40529;52.172;10.548;2022-10-30T09:45:28;9.88;;;4.28;;
53062;SDS011;40529;52.172;10.548;2022-10-30T09:55:56;10.02;;;3.67;;
53062;SDS011;40529;52.172;10.548;2022-10-30T10:01:40;11.15;;;3.63;;
53062;SDS011;40529;52.172;10.548;2022-10-30T10:04:27;8.60;;;4.07;;
53062;SDS011;40529;52.172;10.548;2022-10-30T10:06:56;19.67;;;4.95;;
53062;SDS011;40529;52.172;10.548;2022-10-30T10:09:25;11.45;;;4.20;;
53062;SDS011;40529;52.172;10.548;2022-10-30T10:12:01;9.35;;;3.60;;
53062;SDS011;40529;52.172;10.548;2022-10-30T10:14:30;11.98;;;3.80;;
53062;SDS011;40529;52.172;10.548;2022-10-30T10:16:58;12.43;;;3.90;;
53062;SDS011;40529;52.172;10.548;2022-10-30T10:19:35;14.68;;;4.55;;
53062;SDS011;40529;52.172;10.548;2022-10-30T10:22:05;10.73;;;3.70;;
53062;SDS011;40529;52.172;10.548;2022-10-30T10:24:37;13.18;;;4.65;;
53062;SDS011;40529;52.172;10.548;2022-10-30T10:27:36;10.15;;;3.70;;
53062;SDS011;40529;52.172;10.548;2022-10-30T10:30:07;14.57;;;4.10;;
53062;SDS011;40529;52.172;10.548;2022-10-30T10:41:08;9.95;;;3.88;;
53062;SDS011;40529;52.172;10.548;2022-10-30T10:43:51;10.00;;;3.90;;
53062;SDS011;40529;52.172;10.548;2022-10-30T10:51:23;15.10;;;4.03;;
53062;SDS011;40529;52.172;10.548;2022-10-30T10:56:18;12.55;;;3.75;;
53062;SDS011;40529;52.172;10.548;2022-10-30T11:01:39;9.82;;;3.85;;
53062;SDS011;40529;52.172;10.548;2022-10-30T11:04:13;13.10;;;5.00;;
53062;SDS011;40529;52.172;10.548;2022-10-30T11:06:41;18.30;;;6.68;;
53062;SDS011;40529;52.172;10.548;2022-10-30T11:09:18;12.05;;;5.20;;
53062;SDS011;40529;52.172;10.548;2022-10-30T11:11:45;10.18;;;4.25;;
53062;SDS011;40529;52.172;10.548;2022-10-30T11:14:12;13.07;;;5.53;;
53062;SDS011;40529;52.172;10.548;2022-10-30T11:17:01;20.17;;;5.85;;
53062;SDS011;40529;52.172;10.548;2022-10-30T11:19:25;12.35;;;3.90;;
53062;SDS011;40529;52.172;10.548;2022-10-30T11:21:53;11.43;;;4.30;;
53062;SDS011;40529;52.172;10.548;2022-10-30T11:24:27;13.20;;;3.92;;
53062;SDS011;40529;52.172;10.548;2022-10-30T11:29:38;15.73;;;4.00;;
53062;SDS011;40529;52.172;10.548;2022-10-30T11:32:16;11.20;;;3.63;;
53062;SDS011;40529;52.172;10.548;2022-10-30T11:34:42;13.07;;;4.00;;
53062;SDS011;40529;52.172;10.548;2022-10-30T11:37:26;11.10;;;4.85;;
53062;SDS011;40529;52.172;10.548;2022-10-30T11:40:01;13.65;;;4.32;;
53062;SDS011;40529;52.172;10.548;2022-10-30T11:42:28;18.92;;;5.00;;
53062;SDS011;40529;52.172;10.548;2022-10-30T11:44:54;16.00;;;4.85;;
53062;SDS011;40529;52.172;10.548;2022-10-30T11:47:26;11.70;;;4.75;;
53062;SDS011;40529;52.172;10.548;2022-10-30T11:49:55;14.55;;;4.28;;
53062;SDS011;40529;52.172;10.548;2022-10-30T11:52:22;13.27;;;4.55;;
53062;SDS011;40529;52.172;10.548;2022-10-30T11:54:50;10.10;;;3.85;;
53062;SDS011;40529;52.172;10.548;2022-10-30T11:57:31;13.73;;;3.83;;
53062;SDS011;40529;52.172;10.548;2022-10-30T11:59:58;10.75;;;4.15;;
53062;SDS011;40529;52.172;10.548;2022-10-30T12:02:25;13.73;;;4.68;;
53062;SDS011;40529;52.172;10.548;2022-10-30T12:04:52;19.45;;;4.32;;
53062;SDS011;40529;52.172;10.548;2022-10-30T12:09:47;14.85;;;4.40;;
53062;SDS011;40529;52.172;10.548;2022-10-30T12:14:52;13.55;;;4.85;;
53062;SDS011;40529;52.172;10.548;2022-10-30T12:17:18;15.57;;;4.63;;
53062;SDS011;40529;52.172;10.548;2022-10-30T12:19:49;12.25;;;5.30;;
53062;SDS011;40529;52.172;10.548;2022-10-30T12:22:31;15.75;;;5.40;;
53062;SDS011;40529;52.172;10.548;2022-10-30T12:24:58;18.13;;;5.20;;
53062;SDS011;40529;52.172;10.548;2022-10-30T12:27:26;13.45;;;4.40;;
53062;SDS011;40529;52.172;10.548;2022-10-30T12:32:24;14.90;;;5.38;;
53062;SDS011;40529;52.172;10.548;2022-10-30T12:35:00;12.23;;;4.18;;
53062;SDS011;40529;52.172;10.548;2022-10-30T12:37:30;17.42;;;4.30;;
53062;SDS011;40529;52.172;10.548;2022-10-30T12:40:03;11.32;;;3.40;;
53062;SDS011;40529;52.172;10.548;2022-10-30T12:42:30;14.75;;;5.13;;
53062;SDS011;40529;52.172;10.548;2022-10-30T12:47:33;14.43;;;4.30;;
53062;SDS011;40529;52.172;10.548;2022-10-30T12:50:02;10.82;;;4.18;;
53062;SDS011;40529;52.172;10.548;2022-10-30T12:52:36;12.10;;;4.55;;
53062;SDS011;40529;52.172;10.548;2022-10-30T12:55:11;17.40;;;5.03;;
53062;SDS011;40529;52.172;10.548;2022-10-30T12:57:41;11.93;;;4.47;;
53062;SDS011;40529;52.172;10.548;2022-10-30T13:00:10;12.57;;;3.95;;
53062;SDS011;40529;52.172;10.548;2022-10-30T13:02:44;10.95;;;5.18;;
53062;SDS011;40529;52.172;10.548;2022-10-30T13:05:32;10.70;;;4.10;;
53062;SDS011;40529;52.172;10.548;2022-10-30T13:10:48;12.68;;;3.92;;
53062;SDS011;40529;52.172;10.548;2022-10-30T13:13:17;19.92;;;3.97;;
53062;SDS011;40529;52.172;10.548;2022-10-30T13:15:51;15.00;;;4.22;;
53062;SDS011;40529;52.172;10.548;2022-10-30T13:18:19;12.75;;;4.22;;
53062;SDS011;40529;52.172;10.548;2022-10-30T13:20:51;9.80;;;3.42;;
53062;SDS011;40529;52.172;10.548;2022-10-30T13:23:22;12.70;;;3.47;;
53062;SDS011;40529;52.172;10.548;2022-10-30T13:28:22;18.15;;;4.13;;
53062;SDS011;40529;52.172;10.548;2022-10-30T13:33:41;10.77;;;3.97;;
53062;SDS011;40529;52.172;10.548;2022-10-30T13:36:20;12.18;;;3.60;;
53062;SDS011;40529;52.172;10.548;2022-10-30T13:51:34;13.80;;;3.95;;
53062;SDS011;40529;52.172;10.548;2022-10-30T13:56:31;13.30;;;3.42;;
53062;SDS011;40529;52.172;10.548;2022-10-30T14:01:38;12.45;;;3.90;;
53062;SDS011;40529;52.172;10.548;2022-10-30T14:14:44;14.10;;;3.97;;
53062;SDS011;40529;52.172;10.548;2022-10-30T14:17:13;11.15;;;3.47;;
53062;SDS011;40529;52.172;10.548;2022-10-30T14:22:24;12.82;;;3.97;;
53062;SDS011;40529;52.172;10.548;2022-10-30T14:24:50;7.90;;;3.78;;
53062;SDS011;40529;52.172;10.548;2022-10-30T14:27:18;8.93;;;4.18;;
53062;SDS011;40529;52.172;10.548;2022-10-30T14:29:47;13.18;;;4.65;;
53062;SDS011;40529;52.172;10.548;2022-10-30T14:37:08;9.65;;;3.42;;
53062;SDS011;40529;52.172;10.548;2022-10-30T14:39:38;13.00;;;3.95;;
53062;SDS011;40529;52.172;10.548;2022-10-30T14:42:07;6.38;;;3.30;;
53062;SDS011;40529;52.172;10.548;2022-10-30T14:57:48;11.95;;;4.72;;
53062;SDS011;40529;52.172;10.548;2022-10-30T15:05:35;7.85;;;3.92;;
53062;SDS011;40529;52.172;10.548;2022-10-30T15:10:31;8.75;;;4.30;;
53062;SDS011;40529;52.172;10.548;2022-10-30T15:15:26;8.00;;;3.97;;
53062;SDS011;40529;52.172;10.548;2022-10-30T15:17:54;10.45;;;4.30;;
53062;SDS011;40529;52.172;10.548;2022-10-30T15:20:22;8.80;;;3.75;;
53062;SDS011;40529;52.172;10.548;2022-10-30T15:25:45;10.45;;;4.00;;
53062;SDS011;40529;52.172;10.548;2022-10-30T15:28:13;7.22;;;4.07;;
53062;SDS011;40529;52.172;10.548;2022-10-30T15:30:56;12.15;;;4.40;;
53062;SDS011;40529;52.172;10.548;2022-10-30T15:33:23;8.43;;;4.65;;
53062;SDS011;40529;52.172;10.548;2022-10-30T15:35:49;11.85;;;4.30;;
53062;SDS011;40529;52.172;10.548;2022-10-30T15:38:15;8.57;;;3.90;;
53062;SDS011;40529;52.172;10.548;2022-10-30T15:40:41;6.97;;;4.07;;
53062;SDS011;40529;52.172;10.548;2022-10-30T15:43:09;9.45;;;4.68;;
53062;SDS011;40529;52.172;10.548;2022-10-30T15:45:45;10.50;;;4.50;;
53062;SDS011;40529;52.172;10.548;2022-10-30T15:48:28;8.60;;;4.53;;
53062;SDS011;40529;52.172;10.548;2022-10-30T15:51:06;9.13;;;4.22;;
53062;SDS011;40529;52.172;10.548;2022-10-30T15:54:08;9.82;;;4.57;;
53062;SDS011;40529;52.172;10.548;2022-10-30T15:56:40;8.75;;;4.70;;
53062;SDS011;40529;52.172;10.548;2022-10-30T15:59:06;9.05;;;5.03;;
53062;SDS011;40529;52.172;10.548;2022-10-30T16:01:44;11.60;;;5.47;;
53062;SDS011;40529;52.172;10.548;2022-10-30T16:04:24;10.07;;;5.20;;
53062;SDS011;40529;52.172;10.548;2022-10-30T16:06:51;11.13;;;6.00;;
53062;SDS011;40529;52.172;10.548;2022-10-30T16:09:18;11.30;;;5.40;;
53062;SDS011;40529;52.172;10.548;2022-10-30T16:11:44;12.52;;;6.20;;
53062;SDS011;40529;52.172;10.548;2022-10-30T16:14:15;12.23;;;6.45;;
53062;SDS011;40529;52.172;10.548;2022-10-30T16:16:42;11.73;;;6.50;;
53062;SDS011;40529;52.172;10.548;2022-10-30T16:19:10;14.00;;;7.88;;
53062;SDS011;40529;52.172;10.548;2022-10-30T16:21:41;12.32;;;7.72;;
53062;SDS011;40529;52.172;10.548;2022-10-30T16:24:10;14.60;;;7.60;;
53062;SDS011;40529;52.172;10.548;2022-10-30T16:26:36;13.68;;;7.18;;
53062;SDS011;40529;52.172;10.548;2022-10-30T16:31:38;11.80;;;7.00;;
53062;SDS011;40529;52.172;10.548;2022-10-30T16:34:08;13.25;;;8.45;;
53062;SDS011;40529;52.172;10.548;2022-10-30T16:36:36;17.10;;;8.45;;
53062;SDS011;40529;52.172;10.548;2022-10-30T16:39:02;12.98;;;7.82;;
53062;SDS011;40529;52.172;10.548;2022-10-30T16:41:28;16.23;;;8.23;;
53062;SDS011;40529;52.172;10.548;2022-10-30T16:44:38;13.93;;;9.25;;
53062;SDS011;40529;52.172;10.548;2022-10-30T16:46:49;18.55;;;10.50;;
53062;SDS011;40529;52.172;10.548;2022-10-30T16:49:20;18.45;;;12.40;;
53062;SDS011;40529;52.172;10.548;2022-10-30T16:51:49;25.15;;;15.07;;